Time;durP1;ratioP1;P1;durP2;ratioP2;P2;SDS_P1;SDS_P2;PMS_P1;PMS_P2;Temp;Humidity;BMP_temperature;BMP_pressure;BME280_temperature;BME280_humidity;BME280_pressure;Samples;Min_cycle;Max_cycle;Signal;HPM_P1;HPM_P2
2021/09/29 01:01:51;;;;;;;10.00;9.10;;;14.30;99.90;;;;;;5715690;25;20422;-83
2021/09/29 01:25:08;;;;;;;9.80;8.87;;;14.10;99.90;;;;;;5871162;24;20476;-83
2021/09/29 02:36:04;;;;;;;9.27;8.37;;;13.40;99.90;;;;;;5903444;24;21001;-84
2021/09/29 03:31:03;;;;;;;11.93;8.80;;;12.30;99.90;;;;;;6157398;23;20441;-84
2021/09/29 04:01:14;;;;;;;9.47;8.10;;;12.50;99.90;;;;;;5956488;24;20868;-84
2021/09/29 04:10:42;;;;;;;11.00;9.77;;;12.70;99.90;;;;;;5858297;24;20418;-85
2021/09/29 04:13:09;;;;;;;11.10;8.57;;;12.50;99.90;;;;;;6022989;23;20410;-84
2021/09/29 04:15:36;;;;;;;11.60;10.40;;;12.40;99.90;;;;;;6141499;23;20453;-85
2021/09/29 04:18:03;;;;;;;11.43;8.10;;;12.30;99.90;;;;;;6164022;23;20477;-84
2021/09/29 04:20:30;;;;;;;9.20;8.20;;;12.30;99.90;;;;;;6163482;23;20438;-85
2021/09/29 04:22:57;;;;;;;10.53;9.47;;;12.40;99.90;;;;;;6162020;23;20420;-84
2021/09/29 04:25:24;;;;;;;9.07;8.17;;;12.50;99.90;;;;;;6163028;23;20501;-85
2021/09/29 04:27:53;;;;;;;9.20;7.97;;;12.50;99.90;;;;;;6163040;23;20414;-84
2021/09/29 04:30:20;;;;;;;9.60;8.60;;;12.40;99.90;;;;;;6162198;23;20415;-85
2021/09/29 04:32:47;;;;;;;9.40;8.60;;;12.40;99.90;;;;;;6162834;23;20509;-85
2021/09/29 04:35:14;;;;;;;8.10;7.30;;;12.30;99.90;;;;;;6161741;23;20533;-85
2021/09/29 04:37:41;;;;;;;8.37;7.67;;;12.30;99.90;;;;;;6161115;23;20620;-84
2021/09/29 04:40:09;;;;;;;9.23;7.20;;;12.30;99.90;;;;;;6162007;23;20932;-84
2021/09/29 04:42:36;;;;;;;7.20;6.70;;;12.30;99.90;;;;;;6161747;23;20418;-84
2021/09/29 04:45:06;;;;;;;9.20;7.13;;;12.40;99.90;;;;;;6162008;23;21097;-85
2021/09/29 04:47:33;;;;;;;7.57;6.97;;;12.50;99.90;;;;;;6162165;23;20448;-84
2021/09/29 04:49:59;;;;;;;10.40;7.70;;;12.40;99.90;;;;;;6162959;23;20593;-85
2021/09/29 04:52:27;;;;;;;6.83;6.13;;;12.40;99.90;;;;;;6163264;23;20492;-85
2021/09/29 04:54:53;;;;;;;7.63;6.80;;;12.50;99.90;;;;;;6162850;23;20636;-85
2021/09/29 04:57:20;;;;;;;8.10;7.30;;;12.60;99.90;;;;;;6162364;23;20421;-84
2021/09/29 04:59:47;;;;;;;8.27;7.57;;;12.50;99.90;;;;;;6176733;23;20482;-83
2021/09/29 05:02:16;;;;;;;8.23;7.43;;;12.50;99.90;;;;;;6173655;23;20808;-83
2021/09/29 05:04:43;;;;;;;7.90;7.30;;;12.50;99.90;;;;;;6163304;23;20493;-84
2021/09/29 05:07:17;;;;;;;9.17;7.97;;;12.40;99.90;;;;;;6163758;23;20500;-84
2021/09/29 05:09:43;;;;;;;11.80;9.00;;;12.40;99.90;;;;;;6163555;23;20778;-84
2021/09/29 05:12:21;;;;;;;7.30;6.70;;;12.50;99.90;;;;;;6163624;23;20465;-83
2021/09/29 05:14:47;;;;;;;11.70;7.77;;;12.50;99.90;;;;;;6162667;23;20398;-84
2021/09/29 05:17:15;;;;;;;8.33;7.53;;;12.40;99.90;;;;;;6162859;23;20477;-84
2021/09/29 05:19:42;;;;;;;10.97;8.17;;;12.40;99.90;;;;;;6162772;23;20429;-84
2021/09/29 05:22:09;;;;;;;9.33;8.43;;;12.40;99.90;;;;;;6163166;23;20833;-84
2021/09/29 05:24:36;;;;;;;8.90;8.00;;;12.30;99.90;;;;;;6162865;23;20951;-84
2021/09/29 05:27:03;;;;;;;7.70;6.90;;;12.30;99.90;;;;;;6161911;23;20808;-84
2021/09/29 05:29:31;;;;;;;7.90;7.13;;;12.40;99.90;;;;;;6163170;23;20414;-84
2021/09/29 05:31:58;;;;;;;8.93;8.13;;;12.30;99.90;;;;;;6163138;23;20834;-83
2021/09/29 05:34:26;;;;;;;9.20;8.40;;;12.30;99.90;;;;;;6163098;23;20442;-83
2021/09/29 05:36:53;;;;;;;9.80;8.47;;;12.30;99.90;;;;;;6162587;23;20449;-83
2021/09/29 05:39:20;;;;;;;11.30;8.53;;;12.20;99.90;;;;;;6163037;23;20504;-84
2021/09/29 05:41:47;;;;;;;11.67;7.97;;;12.20;99.90;;;;;;6162789;23;20434;-84
2021/09/29 05:44:13;;;;;;;9.87;8.97;;;12.20;99.90;;;;;;6162988;23;20414;-83
2021/09/29 05:46:40;;;;;;;9.40;7.33;;;12.20;99.90;;;;;;6162926;23;20420;-83
2021/09/29 05:49:07;;;;;;;9.43;8.27;;;12.10;99.90;;;;;;6162378;23;20402;-84
2021/09/29 05:51:35;;;;;;;11.07;7.30;;;12.00;99.90;;;;;;6163227;23;20438;-84
2021/09/29 05:54:02;;;;;;;10.57;8.13;;;11.90;99.90;;;;;;6163216;23;20418;-83
2021/09/29 05:56:29;;;;;;;8.37;7.60;;;11.90;99.90;;;;;;6162301;23;20446;-84
2021/09/29 05:58:55;;;;;;;12.53;11.33;;;11.80;99.90;;;;;;6163045;23;20416;-83
2021/09/29 06:01:22;;;;;;;9.30;8.30;;;11.70;99.90;;;;;;6162142;23;20755;-83
2021/09/29 06:03:49;;;;;;;10.70;9.70;;;11.80;99.90;;;;;;6162551;23;20992;-84
2021/09/29 06:06:16;;;;;;;9.43;8.47;;;11.80;99.90;;;;;;6162682;23;20489;-83
2021/09/29 06:08:44;;;;;;;10.87;9.47;;;11.90;99.90;;;;;;6162329;23;20421;-84
2021/09/29 06:11:11;;;;;;;9.80;8.90;;;11.80;99.90;;;;;;6161771;23;20437;-83
2021/09/29 06:13:37;;;;;;;12.33;9.80;;;11.90;99.90;;;;;;6162088;23;20420;-83
2021/09/29 06:16:07;;;;;;;8.63;7.90;;;12.00;99.90;;;;;;6161538;23;20449;-83
2021/09/29 06:18:35;;;;;;;10.17;8.53;;;12.10;99.90;;;;;;6162248;23;20413;-83
2021/09/29 06:21:03;;;;;;;10.90;8.03;;;12.20;99.90;;;;;;6162708;23;20460;-83
2021/09/29 06:23:30;;;;;;;8.30;7.50;;;12.30;99.90;;;;;;6163286;23;20418;-83
2021/09/29 06:25:58;;;;;;;9.33;7.97;;;12.30;99.90;;;;;;6162988;23;20429;-84
2021/09/29 06:28:25;;;;;;;8.10;7.30;;;12.40;99.90;;;;;;6162677;23;20420;-84
2021/09/29 06:30:54;;;;;;;10.73;7.23;;;12.60;99.90;;;;;;6162282;23;20482;-84
2021/09/29 06:33:21;;;;;;;7.77;7.17;;;12.60;99.90;;;;;;6162892;23;20418;-84
2021/09/29 06:35:48;;;;;;;7.20;6.50;;;12.80;99.90;;;;;;6162188;23;20448;-84
2021/09/29 06:38:15;;;;;;;7.13;6.53;;;12.90;99.90;;;;;;6162987;23;20410;-83
2021/09/29 06:40:41;;;;;;;7.20;6.50;;;12.90;99.90;;;;;;6161759;23;20456;-83
2021/09/29 06:43:10;;;;;;;7.93;5.93;;;12.90;99.90;;;;;;6162550;23;20756;-83
2021/09/29 06:45:36;;;;;;;7.87;7.27;;;12.90;99.90;;;;;;6160937;23;20407;-84
2021/09/29 06:48:04;;;;;;;7.70;6.90;;;13.00;99.90;;;;;;6162553;23;20522;-84
2021/09/29 06:50:31;;;;;;;7.63;6.87;;;12.90;99.90;;;;;;6159650;23;20533;-83
2021/09/29 06:52:58;;;;;;;6.00;5.40;;;12.90;99.90;;;;;;6159484;23;20508;-83
2021/09/29 06:55:24;;;;;;;7.63;6.73;;;13.00;99.90;;;;;;6159435;23;20416;-83
2021/09/29 06:57:51;;;;;;;6.10;5.70;;;13.00;99.90;;;;;;6159532;23;20453;-83
2021/09/29 07:00:20;;;;;;;11.10;6.50;;;13.10;99.90;;;;;;6159259;23;20733;-83
2021/09/29 07:02:48;;;;;;;6.60;5.80;;;13.20;99.90;;;;;;6159803;23;20464;-83
2021/09/29 07:05:16;;;;;;;5.40;5.00;;;13.20;99.90;;;;;;6159909;23;20420;-83
2021/09/29 07:07:43;;;;;;;6.33;5.23;;;13.30;99.90;;;;;;6160745;23;20916;-83
2021/09/29 07:10:10;;;;;;;8.37;5.80;;;13.40;99.90;;;;;;6161612;23;20413;-83
2021/09/29 07:12:38;;;;;;;5.40;4.90;;;13.50;99.90;;;;;;6161482;23;20411;-83
2021/09/29 07:15:06;;;;;;;5.73;4.90;;;13.50;99.90;;;;;;6161153;23;20414;-83
2021/09/29 07:17:35;;;;;;;4.37;4.07;;;13.60;99.90;;;;;;6158860;23;20449;-83
2021/09/29 07:20:03;;;;;;;4.87;4.47;;;13.60;99.90;;;;;;6161522;23;20470;-84
2021/09/29 07:22:30;;;;;;;4.33;4.00;;;13.60;99.90;;;;;;6164322;23;20440;-82
2021/09/29 07:24:57;;;;;;;4.23;3.93;;;13.80;99.90;;;;;;6163214;23;20422;-82
2021/09/29 07:27:24;;;;;;;3.80;3.10;;;14.00;99.90;;;;;;6164441;23;20473;-82
2021/09/29 07:29:51;;;;;;;4.77;4.37;;;14.00;99.90;;;;;;6166144;23;20410;-82
2021/09/29 07:39:46;;;;;;;3.00;2.80;;;14.60;99.90;;;;;;6014062;23;20759;-85
2021/09/29 07:45:40;;;;;;;3.60;2.93;;;14.50;99.90;;;;;;5987371;23;20404;-84
2021/09/29 07:51:51;;;;;;;3.07;2.87;;;14.50;99.90;;;;;;5976106;23;20541;-84
2021/09/29 08:01:54;;;;;;;2.80;2.60;;;14.90;99.90;;;;;;5943956;24;20445;-83
2021/09/29 08:28:00;;;;;;;1.80;1.63;;;15.50;99.90;;;;;;5868784;24;20415;-84
2021/09/29 08:31:11;;;;;;;1.80;1.63;;;15.50;99.90;;;;;;5962264;24;20505;-83
2021/09/29 08:47:23;;;;;;;2.00;1.90;;;15.80;99.90;;;;;;5910266;24;20444;-84
2021/09/29 09:23:53;;;;;;;1.40;1.30;;;16.80;99.90;;;;;;6063551;23;20448;-81
2021/09/29 09:26:22;;;;;;;1.47;1.37;;;16.90;99.90;;;;;;6099263;23;20408;-81
2021/09/29 09:28:51;;;;;;;2.93;1.33;;;17.00;99.90;;;;;;6099905;23;20430;-81
2021/09/29 09:31:20;;;;;;;2.00;1.37;;;17.10;99.90;;;;;;6100692;23;20414;-81
2021/09/29 09:33:50;;;;;;;1.60;1.10;;;17.20;99.90;;;;;;6100193;23;20432;-81
2021/09/29 09:36:31;;;;;;;1.13;1.13;;;17.30;99.20;;;;;;6099733;23;20448;-81
2021/09/29 09:39:00;;;;;;;2.20;1.73;;;17.40;99.10;;;;;;6100299;23;20395;-81
2021/09/29 09:41:26;;;;;;;1.53;1.40;;;17.50;99.10;;;;;;6099438;23;20415;-81
2021/09/29 09:43:55;;;;;;;2.30;1.40;;;17.50;98.60;;;;;;6099841;23;20428;-81
2021/09/29 09:46:23;;;;;;;2.23;1.20;;;17.60;98.90;;;;;;6099215;23;20929;-81
2021/09/29 09:49:05;;;;;;;1.37;1.27;;;17.70;98.60;;;;;;6100459;23;20447;-81
2021/09/29 09:51:33;;;;;;;3.67;1.97;;;17.90;98.50;;;;;;6100274;23;20405;-81
2021/09/29 09:54:01;;;;;;;1.37;1.20;;;18.00;97.90;;;;;;6099970;23;20462;-81
2021/09/29 09:56:30;;;;;;;1.53;1.30;;;17.90;97.60;;;;;;6099259;23;20454;-81
2021/09/29 09:58:59;;;;;;;1.70;1.60;;;17.80;97.40;;;;;;6099617;23;20423;-82
2021/09/29 10:01:28;;;;;;;1.40;1.30;;;17.90;98.10;;;;;;6100073;23;20437;-81
2021/09/29 10:03:56;;;;;;;1.50;1.40;;;18.00;98.00;;;;;;6099406;23;20439;-81
2021/09/29 10:06:24;;;;;;;1.27;1.00;;;18.00;96.90;;;;;;6100136;23;20419;-81
2021/09/29 10:08:59;;;;;;;1.33;1.17;;;17.90;95.50;;;;;;6100191;23;20417;-81
2021/09/29 10:11:30;;;;;;;1.83;1.50;;;17.90;95.80;;;;;;6099167;23;20489;-81
2021/09/29 10:27:59;;;;;;;0.80;0.80;;;19.10;93.00;;;;;;6099718;23;20375;-81
2021/09/29 10:30:30;;;;;;;2.70;1.37;;;19.10;92.60;;;;;;6099707;23;20423;-81
2021/09/29 10:33:01;;;;;;;1.67;1.07;;;19.20;92.90;;;;;;6100180;23;20440;-82
2021/09/29 10:35:43;;;;;;;0.93;0.90;;;19.30;93.10;;;;;;6099725;23;20400;-81
2021/09/29 10:43:51;;;;;;;2.67;1.43;;;18.90;93.10;;;;;;6088642;23;20914;-81
2021/09/29 10:46:30;;;;;;;2.47;1.10;;;18.80;93.10;;;;;;6101623;23;20403;-82
2021/09/29 10:49:08;;;;;;;1.50;1.40;;;18.50;93.60;;;;;;6101561;23;20493;-81
2021/09/29 10:52:03;;;;;;;4.83;0.80;;;18.50;93.80;;;;;;6101979;23;20897;-81
2021/09/29 11:06:10;;;;;;;1.57;1.47;;;18.50;94.20;;;;;;6085554;23;20442;-81
2021/09/29 11:08:58;;;;;;;2.10;1.90;;;18.60;94.10;;;;;;6101476;23;20438;-82
2021/09/29 11:28:48;;;;;;;2.00;1.00;;;19.10;93.40;;;;;;6065639;23;20466;-82
2021/09/29 11:31:18;;;;;;;3.37;1.43;;;19.50;92.70;;;;;;6101112;23;20404;-81
2021/09/29 11:33:55;;;;;;;5.37;3.10;;;20.00;92.50;;;;;;6101831;23;20815;-82
2021/09/29 11:36:41;;;;;;;1.70;1.10;;;20.70;92.60;;;;;;6101506;23;20497;-82
2021/09/29 11:39:28;;;;;;;1.53;0.90;;;21.70;91.50;;;;;;6101297;23;20418;-82
2021/09/29 12:09:39;;;;;;;2.40;1.00;;;20.20;88.20;;;;;;6101014;23;20437;-81
2021/09/29 12:12:20;;;;;;;4.83;1.27;;;20.00;88.60;;;;;;6101479;23;20405;-81
2021/09/29 12:14:48;;;;;;;1.43;1.10;;;20.10;88.40;;;;;;6101764;23;20508;-81
2021/09/29 12:17:20;;;;;;;1.17;0.70;;;20.00;88.40;;;;;;6100457;23;20453;-82
2021/09/29 12:19:53;;;;;;;1.63;0.83;;;20.10;88.90;;;;;;6101288;23;20397;-81
2021/09/29 12:22:23;;;;;;;1.27;0.60;;;20.50;88.20;;;;;;6100712;23;20441;-82
2021/09/29 12:24:56;;;;;;;1.13;1.03;;;20.50;87.40;;;;;;6100505;23;20401;-82
2021/09/29 12:27:24;;;;;;;0.80;0.80;;;21.00;87.30;;;;;;6100349;23;20462;-82
2021/09/29 12:29:52;;;;;;;0.90;0.53;;;21.50;85.60;;;;;;6101556;23;20445;-82
2021/09/29 12:35:16;;;;;;;1.37;0.80;;;22.40;81.30;;;;;;6097510;23;20409;-82
2021/09/29 12:37:56;;;;;;;1.03;0.70;;;22.80;81.20;;;;;;6101097;23;20824;-82
2021/09/29 12:40:24;;;;;;;1.43;0.87;;;21.90;80.80;;;;;;6101344;23;20399;-82
2021/09/29 12:42:58;;;;;;;0.70;0.70;;;21.50;82.70;;;;;;6100822;23;20432;-82
2021/09/29 12:45:27;;;;;;;2.00;0.87;;;21.00;84.20;;;;;;6099715;23;21141;-81
2021/09/29 12:47:54;;;;;;;2.07;1.03;;;20.60;85.70;;;;;;6100720;23;20413;-82
2021/09/29 12:50:24;;;;;;;1.10;1.00;;;20.30;86.80;;;;;;6101192;23;20800;-81
2021/09/29 12:52:57;;;;;;;0.97;0.97;;;20.50;87.70;;;;;;6100459;23;20937;-81
2021/09/29 12:55:32;;;;;;;1.33;0.73;;;20.50;87.40;;;;;;6101005;23;20443;-83
2021/09/29 12:57:59;;;;;;;1.03;0.93;;;20.10;86.90;;;;;;6100549;23;20463;-81
2021/09/29 13:00:26;;;;;;;3.53;0.87;;;19.80;87.60;;;;;;6100631;23;20419;-83
2021/09/29 13:02:52;;;;;;;3.87;1.30;;;19.50;89.50;;;;;;6099892;23;20432;-81
2021/09/29 13:05:19;;;;;;;1.60;1.00;;;19.50;89.30;;;;;;6100520;23;20412;-81
2021/09/29 13:07:46;;;;;;;1.23;0.87;;;19.40;89.80;;;;;;6100513;23;20444;-81
2021/09/29 13:10:12;;;;;;;2.53;0.93;;;19.40;90.40;;;;;;6100600;23;20413;-81
2021/09/29 13:12:41;;;;;;;0.70;0.70;;;19.60;90.70;;;;;;6100134;23;20434;-81
2021/09/29 13:15:09;;;;;;;0.60;0.53;;;20.20;90.30;;;;;;6103417;23;20402;-81
2021/09/29 13:17:35;;;;;;;0.80;0.77;;;20.80;88.70;;;;;;6103780;23;20531;-81
2021/09/29 13:20:04;;;;;;;3.37;1.43;;;21.60;89.40;;;;;;6103510;23;20526;-81
2021/09/29 13:22:34;;;;;;;1.80;1.20;;;21.80;86.90;;;;;;6103113;23;20446;-81
2021/09/29 13:38:45;;;;;;;2.23;1.17;;;18.10;94.80;;;;;;6100523;23;20437;-81
2021/09/29 13:41:12;;;;;;;2.33;0.90;;;17.40;97.10;;;;;;6100352;23;20418;-81
2021/09/29 13:43:41;;;;;;;2.97;1.43;;;17.10;99.00;;;;;;6100045;23;20461;-81
2021/09/29 13:46:09;;;;;;;2.33;1.40;;;16.90;99.90;;;;;;6099332;23;20476;-84
2021/09/29 13:48:36;;;;;;;1.53;1.43;;;16.40;99.90;;;;;;6100547;23;20418;-84
2021/09/29 13:51:04;;;;;;;2.30;1.67;;;16.00;99.90;;;;;;6100469;23;20404;-82
2021/09/29 13:53:31;;;;;;;3.10;1.60;;;15.70;99.90;;;;;;6100214;23;20432;-83
2021/09/29 13:56:01;;;;;;;1.63;1.53;;;15.50;99.90;;;;;;6099757;23;20420;-82
2021/09/29 13:58:48;;;;;;;2.00;1.50;;;15.40;99.90;;;;;;6100309;23;20434;-82
2021/09/29 14:29:05;;;;;;;1.50;1.10;;;14.70;99.90;;;;;;5093404;28;20422;-82
2021/09/29 14:31:37;;;;;;;1.13;0.97;;;14.70;99.90;;;;;;5093768;28;20451;-83
2021/09/29 14:34:05;;;;;;;1.47;0.60;;;14.60;99.90;;;;;;5093318;28;20462;-83
2021/09/29 14:36:31;;;;;;;4.03;1.07;;;14.40;99.90;;;;;;5092835;28;20482;-84
2021/09/29 14:38:58;;;;;;;0.37;0.37;;;13.90;99.90;;;;;;5092677;28;20450;-83
2021/09/29 14:41:25;;;;;;;1.70;0.70;;;13.40;99.90;;;;;;5091694;28;20836;-83
2021/09/29 14:43:53;;;;;;;1.37;0.70;;;12.90;99.90;;;;;;5092265;28;20475;-82
2021/09/29 14:46:20;;;;;;;0.70;0.60;;;12.60;99.90;;;;;;5092577;28;20445;-81
2021/09/29 14:48:46;;;;;;;0.60;0.60;;;12.50;99.90;;;;;;5093526;28;20453;-81
2021/09/29 14:51:14;;;;;;;0.57;0.50;;;12.40;99.90;;;;;;5092750;28;20452;-81
2021/09/29 14:53:41;;;;;;;0.70;0.70;;;12.30;99.90;;;;;;5092972;28;20474;-81
2021/09/29 14:56:09;;;;;;;0.67;0.40;;;12.20;99.90;;;;;;5092110;28;20492;-81
2021/09/29 14:58:38;;;;;;;0.70;0.70;;;12.10;99.90;;;;;;5092476;28;20457;-81
2021/09/29 15:01:05;;;;;;;0.57;0.57;;;12.10;99.90;;;;;;5092137;28;20453;-81
2021/09/29 15:03:32;;;;;;;1.13;0.93;;;12.10;99.90;;;;;;5092256;28;20485;-82
2021/09/29 15:05:59;;;;;;;0.70;0.70;;;12.00;99.90;;;;;;5092115;28;20797;-82
2021/09/29 15:08:27;;;;;;;1.33;1.10;;;12.10;99.90;;;;;;5092086;28;20461;-82
2021/09/29 15:10:54;;;;;;;0.87;0.83;;;12.10;99.90;;;;;;5092316;28;20816;-81
2021/09/29 15:13:26;;;;;;;0.73;0.73;;;12.10;99.90;;;;;;5092178;28;20470;-81
2021/09/29 15:15:57;;;;;;;1.07;0.90;;;12.00;99.90;;;;;;5091550;28;20457;-82
2021/09/29 15:18:27;;;;;;;1.70;0.90;;;12.00;99.90;;;;;;5084561;28;20451;-81
2021/09/29 15:23:53;;;;;;;4.63;0.63;;;12.00;99.90;;;;;;5050737;28;20454;-83
2021/09/29 15:26:51;;;;;;;1.80;0.80;;;12.00;99.90;;;;;;5073202;28;20487;-83
2021/09/29 15:49:42;;;;;;;0.90;0.70;;;12.40;99.90;;;;;;5039233;28;20454;-84
2021/09/29 15:52:25;;;;;;;2.50;1.03;;;12.30;99.90;;;;;;5036779;28;20480;-84
2021/09/29 15:55:09;;;;;;;0.70;0.70;;;12.40;99.90;;;;;;5037389;28;20543;-83
2021/09/29 15:58:07;;;;;;;0.60;0.50;;;12.50;99.90;;;;;;5037969;28;21323;-84
2021/09/29 16:00:53;;;;;;;0.70;0.70;;;12.60;99.90;;;;;;5021116;28;20441;-83
2021/09/29 16:03:33;;;;;;;0.90;0.90;;;12.70;99.90;;;;;;5031561;28;20548;-85
2021/09/29 16:06:10;;;;;;;0.50;0.50;;;12.80;99.90;;;;;;5039352;28;20453;-84
2021/09/29 16:08:46;;;;;;;2.63;2.43;;;12.80;99.90;;;;;;5039717;28;20969;-84
2021/09/29 16:14:37;;;;;;;1.50;1.30;;;13.10;99.90;;;;;;5004258;28;20485;-84
2021/09/29 16:17:25;;;;;;;1.60;0.60;;;13.00;99.90;;;;;;5028145;28;20508;-85
2021/09/29 16:30:52;;;;;;;1.80;0.80;;;12.80;99.90;;;;;;5037256;28;20453;-85
2021/09/29 16:36:19;;;;;;;1.43;0.77;;;12.90;99.90;;;;;;5025716;28;20472;-87
2021/09/29 16:38:47;;;;;;;1.07;0.87;;;12.80;99.90;;;;;;5031211;28;20457;-82
2021/09/29 16:41:15;;;;;;;1.10;1.00;;;12.70;99.90;;;;;;5025341;28;20449;-83
2021/09/29 16:44:03;;;;;;;0.80;0.73;;;12.70;99.90;;;;;;5033597;28;20468;-86
2021/09/29 16:49:39;;;;;;;2.00;1.03;;;12.70;99.90;;;;;;4976902;28;20444;-83
2021/09/29 16:52:26;;;;;;;1.60;1.03;;;12.70;99.90;;;;;;5016060;28;20460;-84
2021/09/29 16:54:57;;;;;;;3.17;1.33;;;12.80;99.90;;;;;;5028361;28;21019;-83
2021/09/29 16:58:03;;;;;;;1.20;1.10;;;12.90;99.90;;;;;;5028723;28;20485;-84
2021/09/29 17:00:43;;;;;;;2.30;1.70;;;12.90;99.90;;;;;;5036970;28;20491;-84
2021/09/29 17:03:24;;;;;;;1.87;1.47;;;12.90;99.90;;;;;;5040181;28;20471;-84
2021/09/29 17:09:58;;;;;;;2.30;1.43;;;12.90;99.90;;;;;;4941362;28;20425;-84
2021/09/29 17:12:28;;;;;;;1.60;1.40;;;12.90;99.90;;;;;;5036058;28;20470;-83
2021/09/29 17:14:55;;;;;;;1.33;1.23;;;12.80;99.90;;;;;;5036111;28;20457;-83
2021/09/29 17:17:22;;;;;;;1.50;1.40;;;12.70;99.90;;;;;;5037969;28;20487;-83
2021/09/29 17:19:50;;;;;;;1.50;0.70;;;12.70;99.90;;;;;;5038131;28;20459;-83
2021/09/29 17:22:17;;;;;;;2.33;1.87;;;12.70;99.90;;;;;;5036923;28;20471;-84
2021/09/29 17:24:44;;;;;;;1.10;1.10;;;12.70;99.90;;;;;;5036938;28;20464;-83
2021/09/29 17:27:15;;;;;;;1.80;1.00;;;12.80;99.90;;;;;;5035796;28;20453;-84
2021/09/29 17:29:42;;;;;;;1.20;1.10;;;12.70;99.90;;;;;;5037158;28;20452;-85
2021/09/29 17:32:11;;;;;;;1.20;1.10;;;12.80;99.90;;;;;;5036566;28;20488;-83
2021/09/29 17:34:46;;;;;;;0.87;0.87;;;12.80;99.90;;;;;;5033378;28;20453;-83
2021/09/29 17:37:26;;;;;;;3.27;0.90;;;12.70;99.90;;;;;;5027141;28;20568;-83
2021/09/29 17:52:11;;;;;;;1.63;1.10;;;12.50;99.90;;;;;;5029956;28;20502;-84
2021/09/29 17:53:55;;;;;;;1.40;1.30;;;12.40;99.90;;;;;;5000536;28;20473;-85
2021/09/29 17:56:23;;;;;;;3.60;1.37;;;12.50;99.90;;;;;;5017691;28;20453;-86
2021/09/29 17:58:50;;;;;;;1.57;0.80;;;12.50;99.90;;;;;;5021443;28;20827;-85
2021/09/29 18:01:21;;;;;;;1.13;1.03;;;12.50;99.90;;;;;;5041025;28;20475;-85
2021/09/29 18:03:55;;;;;;;0.90;0.90;;;12.30;99.90;;;;;;5041575;28;20472;-85
2021/09/29 18:06:26;;;;;;;1.87;1.27;;;12.40;99.90;;;;;;5040883;28;20464;-85
2021/09/29 18:08:54;;;;;;;2.37;1.97;;;12.30;99.90;;;;;;5041853;28;20907;-85
2021/09/29 18:11:21;;;;;;;2.10;1.07;;;12.40;99.90;;;;;;5039912;28;20449;-86
2021/09/29 18:13:48;;;;;;;1.10;1.10;;;12.30;99.90;;;;;;5039585;28;20484;-85
2021/09/29 18:16:14;;;;;;;1.17;1.07;;;12.40;99.90;;;;;;5038939;28;20461;-84
2021/09/29 18:18:41;;;;;;;0.97;0.97;;;12.40;99.90;;;;;;5040441;28;20835;-85
2021/09/29 18:21:08;;;;;;;1.27;1.17;;;12.50;99.90;;;;;;5039885;28;20468;-85
2021/09/29 18:23:35;;;;;;;2.20;1.23;;;12.30;99.90;;;;;;5039353;28;20484;-84
2021/09/29 18:26:03;;;;;;;0.97;0.90;;;12.30;99.90;;;;;;5039596;28;20453;-84
2021/09/29 18:28:30;;;;;;;1.40;1.30;;;12.40;99.90;;;;;;5039720;28;20451;-84
2021/09/29 18:31:02;;;;;;;1.30;1.20;;;12.20;99.90;;;;;;5038682;28;20831;-85
2021/09/29 18:33:31;;;;;;;0.90;0.90;;;12.20;99.90;;;;;;5038823;28;20487;-84
2021/09/29 18:35:59;;;;;;;1.50;1.40;;;12.20;99.90;;;;;;5039067;28;20460;-85
2021/09/29 18:38:28;;;;;;;1.17;1.17;;;12.20;99.90;;;;;;5039059;28;20491;-84
2021/09/29 18:41:09;;;;;;;1.40;1.20;;;12.20;99.90;;;;;;5035828;28;20455;-85
2021/09/29 18:43:38;;;;;;;1.60;1.50;;;12.10;99.90;;;;;;5019134;28;20476;-85
2021/09/29 18:46:05;;;;;;;1.47;1.37;;;12.10;99.90;;;;;;5019969;28;20461;-84
2021/09/29 18:48:32;;;;;;;2.53;2.17;;;12.20;99.90;;;;;;5037530;28;20454;-85
2021/09/29 18:50:59;;;;;;;1.60;1.50;;;11.90;99.90;;;;;;5037487;28;20549;-85
2021/09/29 18:53:30;;;;;;;0.90;0.90;;;11.90;99.90;;;;;;5035746;28;20894;-83
2021/09/29 18:56:09;;;;;;;1.03;1.03;;;11.50;99.90;;;;;;5035225;28;20459;-83
2021/09/29 19:04:09;;;;;;;1.50;1.40;;;11.00;99.90;;;;;;5039507;28;20454;-85
2021/09/29 19:09:21;;;;;;;3.40;1.50;;;10.90;99.90;;;;;;5026589;28;20499;-85
2021/09/29 19:11:48;;;;;;;1.47;1.37;;;10.90;99.90;;;;;;5026989;28;20467;-86
2021/09/29 19:14:16;;;;;;;1.00;1.00;;;10.90;99.90;;;;;;5032099;28;20460;-86
2021/09/29 19:16:43;;;;;;;1.30;1.20;;;10.90;99.90;;;;;;5030899;28;20462;-85
2021/09/29 19:19:10;;;;;;;1.53;1.30;;;11.00;99.90;;;;;;5033306;28;20449;-86
2021/09/29 19:21:37;;;;;;;1.40;1.27;;;10.90;99.90;;;;;;5036660;28;20459;-87
2021/09/29 19:24:04;;;;;;;1.57;1.17;;;11.00;99.90;;;;;;5033403;28;20514;-86
2021/09/29 19:26:31;;;;;;;2.10;1.03;;;10.90;99.90;;;;;;5033087;28;20488;-86
2021/09/29 19:28:59;;;;;;;1.23;1.00;;;11.00;99.90;;;;;;5036013;28;20480;-86
2021/09/29 19:31:28;;;;;;;1.30;1.30;;;11.00;99.90;;;;;;5035856;28;20941;-86
2021/09/29 19:33:55;;;;;;;1.10;1.10;;;10.90;99.90;;;;;;5038667;28;20482;-85
2021/09/29 19:36:23;;;;;;;0.97;0.93;;;10.90;99.90;;;;;;5044273;28;20453;-85
2021/09/29 19:38:50;;;;;;;2.70;1.47;;;10.90;99.90;;;;;;5045345;28;20483;-85
2021/09/29 19:41:17;;;;;;;1.20;1.20;;;11.00;99.90;;;;;;5045631;28;20477;-85
2021/09/29 19:43:45;;;;;;;1.27;1.17;;;11.00;99.90;;;;;;5045258;28;20470;-85
2021/09/29 19:46:16;;;;;;;1.80;1.42;;;11.00;99.90;;;;;;5047058;28;20482;-85
2021/09/29 19:49:03;;;;;;;1.60;1.50;;;10.80;99.90;;;;;;5047292;28;20212;-85
2021/09/29 20:07:56;;;;;;;1.20;1.10;;;10.50;99.90;;;;;;5046548;28;20466;-86
2021/09/29 20:10:23;;;;;;;2.70;1.47;;;10.40;99.90;;;;;;5046801;28;20941;-83
2021/09/29 20:12:51;;;;;;;1.48;1.38;;;10.40;99.90;;;;;;5046851;28;20468;-86
2021/09/29 20:15:20;;;;;;;1.20;1.20;;;10.40;99.90;;;;;;5045357;28;20211;-85
2021/09/29 20:17:48;;;;;;;1.77;1.58;;;10.30;99.90;;;;;;5045670;28;20224;-84
2021/09/29 20:20:17;;;;;;;1.73;1.63;;;10.20;99.90;;;;;;5045799;28;20212;-84
2021/09/29 20:22:45;;;;;;;3.03;2.00;;;10.30;99.90;;;;;;5045649;28;20227;-86
2021/09/29 20:25:13;;;;;;;6.00;2.33;;;10.20;99.90;;;;;;5045677;28;20211;-86
2021/09/29 20:27:41;;;;;;;2.15;1.40;;;10.20;99.90;;;;;;5045806;28;20946;-86
2021/09/29 20:30:10;;;;;;;1.00;0.93;;;10.20;99.90;;;;;;5045349;28;20288;-86
2021/09/29 20:32:37;;;;;;;1.80;1.67;;;10.20;99.90;;;;;;5043606;28;20496;-86
2021/09/29 20:43:27;;;;;;;2.90;1.30;;;10.00;99.90;;;;;;5038103;28;20300;-83
2021/09/29 20:45:57;;;;;;;3.10;1.10;;;10.00;99.90;;;;;;5037734;28;20212;-84
2021/09/29 20:48:24;;;;;;;1.08;1.00;;;10.00;99.90;;;;;;5037403;28;20696;-83
2021/09/29 20:50:53;;;;;;;2.80;1.33;;;10.00;99.90;;;;;;5017548;28;20694;-82
2021/09/29 20:53:22;;;;;;;2.35;1.50;;;9.90;99.90;;;;;;5018685;28;20226;-83
2021/09/29 20:55:48;;;;;;;2.40;1.85;;;9.90;99.90;;;;;;5036412;28;20231;-83
2021/09/29 20:58:16;;;;;;;4.80;2.47;;;9.80;99.90;;;;;;5037391;28;20238;-83
2021/09/29 21:00:43;;;;;;;2.55;1.60;;;9.80;99.90;;;;;;5017130;28;20200;-83
2021/09/29 21:03:10;;;;;;;1.83;1.73;;;9.90;99.90;;;;;;5016476;28;20224;-83
2021/09/29 21:05:37;;;;;;;2.17;1.98;;;9.90;99.90;;;;;;5016163;28;20277;-83
2021/09/29 21:08:06;;;;;;;1.70;1.20;;;9.80;99.90;;;;;;5018223;28;20258;-83
2021/09/29 21:10:42;;;;;;;1.42;1.08;;;9.90;99.90;;;;;;5033438;28;20458;-83
2021/09/29 21:13:13;;;;;;;1.50;1.30;;;9.90;99.90;;;;;;5035845;28;20314;-83
2021/09/29 21:15:43;;;;;;;3.58;1.67;;;9.90;99.90;;;;;;5036029;28;20212;-83
2021/09/29 21:18:11;;;;;;;1.67;1.40;;;9.80;99.90;;;;;;5035514;28;20665;-83
2021/09/29 21:20:42;;;;;;;1.55;1.45;;;9.80;99.90;;;;;;5036420;28;20264;-83
2021/09/29 21:23:11;;;;;;;3.28;2.47;;;9.80;99.90;;;;;;5041641;28;20224;-83
2021/09/29 21:25:41;;;;;;;1.60;1.25;;;9.70;99.90;;;;;;5049045;28;20213;-84
2021/09/29 21:28:10;;;;;;;2.13;1.90;;;9.70;99.90;;;;;;5051664;28;20281;-83
2021/09/29 21:30:41;;;;;;;1.40;1.20;;;9.70;99.90;;;;;;5045040;28;20216;-83
2021/09/29 21:33:08;;;;;;;2.67;1.10;;;9.80;99.90;;;;;;5038567;28;20512;-84
2021/09/29 21:35:36;;;;;;;3.17;1.30;;;9.80;99.90;;;;;;5037982;28;20574;-85
2021/09/29 21:38:13;;;;;;;2.83;1.52;;;9.80;99.90;;;;;;5037565;28;20223;-84
2021/09/29 21:41:02;;;;;;;3.50;1.50;;;9.80;99.90;;;;;;5037601;28;20295;-85
